Hastiere-Lavaux, Belgium
Current Conditions -  °F | °C
As of 9:25 PM on Friday 28 Nov 2014 (Local Time) from EBFS Reporting Station
Scattered Clouds Scattered Clouds  
Wind Chill: 43°   Ceiling: Unl
Heat Index: 46°   Visibility: 6mi
Dew Point: 37°   Wind: 7mph
Humidity: 71%   Direction: 120°ESE
Pressure: 29.77"   Gusts: NA
Location:  50.22°N, 4.82°E
Report Text: EBFS 282025Z 12006KT 9999 SCT200 08/03 Q1008 BLU
Loading
Personal Weather Stations






























Interactive Weather Map New forecast layout! Learn more

10-Day Weather Forecast

Advertisements
Track Severe Weather on mobile